Terminal Aerodrome Forecast
Issued by NWS

Home | Current Version | Previous Version | Text Only | Print | Product List | Glossary On
Versions: 1 2 3 4 5 6 7 8 9 10 11 12 13 14
793
FTUS42 TJSJ 121720
TAFJPS
TAF
TJPS 121720Z 1218/1318 05003KT P6SM FEW030
     FM122330 09007KT P6SM FEW030 SCT060
     FM131400 14012G18KT P6SM FEW030
      AMD NOT SKED TIL 130300=

USA.gov is the U.S. government's official web portal to all federal, state and local government web resources and services.